sensor_id;sensor_type;location;lat;lon;timestamp;pressure;altitude;pressure_sealevel;temperature;humidity
19236;BME280;9752;54.270;12.470;2023-01-27T00:04:56;102909.25;;;3.28;100.00
19236;BME280;9752;54.270;12.470;2023-01-27T00:09:57;102895.47;;;3.21;100.00
19236;BME280;9752;54.270;12.470;2023-01-27T00:14:59;102898.91;;;3.14;100.00
19236;BME280;9752;54.270;12.470;2023-01-27T00:20:03;102895.59;;;3.08;100.00
19236;BME280;9752;54.270;12.470;2023-01-27T00:25:06;102888.81;;;3.08;100.00
19236;BME280;9752;54.270;12.470;2023-01-27T00:30:09;102885.50;;;3.02;100.00
19236;BME280;9752;54.270;12.470;2023-01-27T00:35:13;102887.69;;;2.99;100.00
19236;BME280;9752;54.270;12.470;2023-01-27T00:40:16;102887.88;;;3.01;100.00
19236;BME280;9752;54.270;12.470;2023-01-27T00:45:17;102877.22;;;2.98;100.00
19236;BME280;9752;54.270;12.470;2023-01-27T00:50:38;102878.53;;;3.01;100.00
19236;BME280;9752;54.270;12.470;2023-01-27T00:55:40;102882.19;;;3.03;100.00
19236;BME280;9752;54.270;12.470;2023-01-27T01:00:42;102878.56;;;3.08;100.00
19236;BME280;9752;54.270;12.470;2023-01-27T01:05:45;102878.56;;;3.08;100.00
19236;BME280;9752;54.270;12.470;2023-01-27T01:10:48;102867.91;;;3.05;100.00
19236;BME280;9752;54.270;12.470;2023-01-27T01:15:49;102876.56;;;3.06;100.00
19236;BME280;9752;54.270;12.470;2023-01-27T01:20:52;102867.22;;;3.06;100.00
19236;BME280;9752;54.270;12.470;2023-01-27T01:25:55;102876.75;;;3.07;100.00
19236;BME280;9752;54.270;12.470;2023-01-27T01:31:03;102871.94;;;3.03;100.00
19236;BME280;9752;54.270;12.470;2023-01-27T01:36:07;102869.56;;;3.05;100.00
19236;BME280;9752;54.270;12.470;2023-01-27T01:41:13;102866.81;;;3.03;100.00
19236;BME280;9752;54.270;12.470;2023-01-27T01:46:16;102878.53;;;3.01;100.00
19236;BME280;9752;54.270;12.470;2023-01-27T01:51:24;102866.81;;;3.03;100.00
19236;BME280;9752;54.270;12.470;2023-01-27T01:56:31;102867.38;;;3.01;100.00
19236;BME280;9752;54.270;12.470;2023-01-27T02:01:35;102861.84;;;2.98;100.00
19236;BME280;9752;54.270;12.470;2023-01-27T02:06:42;102855.09;;;2.98;100.00
19236;BME280;9752;54.270;12.470;2023-01-27T02:11:48;102859.88;;;3.02;100.00
19236;BME280;9752;54.270;12.470;2023-01-27T02:16:51;102861.53;;;3.02;100.00
19236;BME280;9752;54.270;12.470;2023-01-27T02:21:55;102846.84;;;3.01;100.00
19236;BME280;9752;54.270;12.470;2023-01-27T02:26:59;102852.19;;;3.02;100.00
19236;BME280;9752;54.270;12.470;2023-01-27T02:32:02;102848.53;;;3.00;100.00
19236;BME280;9752;54.270;12.470;2023-01-27T02:37:05;102847.41;;;2.98;100.00
19236;BME280;9752;54.270;12.470;2023-01-27T02:42:13;102852.16;;;2.95;100.00
19236;BME280;9752;54.270;12.470;2023-01-27T02:47:16;102845.19;;;2.94;100.00
19236;BME280;9752;54.270;12.470;2023-01-27T02:52:18;102847.94;;;2.96;100.00
19236;BME280;9752;54.270;12.470;2023-01-27T02:57:22;102850.34;;;2.94;100.00
19236;BME280;9752;54.270;12.470;2023-01-27T03:02:42;102848.28;;;2.91;100.00
19236;BME280;9752;54.270;12.470;2023-01-27T03:07:44;102844.81;;;2.91;100.00
19236;BME280;9752;54.270;12.470;2023-01-27T03:12:48;102839.44;;;2.82;100.00
19236;BME280;9752;54.270;12.470;2023-01-27T03:17:50;102832.72;;;2.83;100.00
19236;BME280;9752;54.270;12.470;2023-01-27T03:23:10;102834.88;;;2.80;100.00
19236;BME280;9752;54.270;12.470;2023-01-27T03:28:15;102824.22;;;2.77;100.00
19236;BME280;9752;54.270;12.470;2023-01-27T03:33:32;102820.06;;;2.77;100.00
19236;BME280;9752;54.270;12.470;2023-01-27T03:38:37;102822.41;;;2.76;100.00
19236;BME280;9752;54.270;12.470;2023-01-27T03:43:57;102818.41;;;2.78;100.00
19236;BME280;9752;54.270;12.470;2023-01-27T03:49:18;102824.44;;;2.78;100.00
19236;BME280;9752;54.270;12.470;2023-01-27T03:54:20;102824.03;;;2.75;100.00
19236;BME280;9752;54.270;12.470;2023-01-27T03:59:23;102819.09;;;2.69;100.00
19236;BME280;9752;54.270;12.470;2023-01-27T04:04:24;102826.78;;;2.69;100.00
19236;BME280;9752;54.270;12.470;2023-01-27T04:09:43;102816.16;;;2.66;100.00
19236;BME280;9752;54.270;12.470;2023-01-27T04:14:46;102819.81;;;2.68;100.00
19236;BME280;9752;54.270;12.470;2023-01-27T04:19:48;102807.00;;;2.68;100.00
19236;BME280;9752;54.270;12.470;2023-01-27T04:24:50;102803.53;;;2.68;100.00
19236;BME280;9752;54.270;12.470;2023-01-27T04:29:53;102805.91;;;2.66;100.00
19236;BME280;9752;54.270;12.470;2023-01-27T04:34:55;102795.44;;;2.65;100.00
19236;BME280;9752;54.270;12.470;2023-01-27T04:39:57;102793.25;;;2.61;100.00
19236;BME280;9752;54.270;12.470;2023-01-27T04:45:00;102795.97;;;2.55;100.00
19236;BME280;9752;54.270;12.470;2023-01-27T04:50:01;102796.13;;;2.49;100.00
19236;BME280;9752;54.270;12.470;2023-01-27T04:55:03;102802.69;;;2.47;100.00
19236;BME280;9752;54.270;12.470;2023-01-27T05:00:09;102798.28;;;2.46;100.00
19236;BME280;9752;54.270;12.470;2023-01-27T05:05:11;102804.66;;;2.43;100.00
19236;BME280;9752;54.270;12.470;2023-01-27T05:10:13;102798.78;;;2.37;100.00
19236;BME280;9752;54.270;12.470;2023-01-27T05:15:16;102798.78;;;2.37;100.00
19236;BME280;9752;54.270;12.470;2023-01-27T05:20:17;102812.34;;;2.36;100.00
19236;BME280;9752;54.270;12.470;2023-01-27T05:25:19;102808.31;;;2.38;100.00
19236;BME280;9752;54.270;12.470;2023-01-27T05:30:22;102823.47;;;2.36;100.00
19236;BME280;9752;54.270;12.470;2023-01-27T05:35:24;102817.97;;;2.33;100.00
19236;BME280;9752;54.270;12.470;2023-01-27T05:40:26;102836.84;;;2.33;100.00
19236;BME280;9752;54.270;12.470;2023-01-27T05:45:29;102825.44;;;2.31;100.00
19236;BME280;9752;54.270;12.470;2023-01-27T05:50:30;102833.88;;;2.30;100.00
19236;BME280;9752;54.270;12.470;2023-01-27T05:55:32;102826.53;;;2.26;100.00
19236;BME280;9752;54.270;12.470;2023-01-27T06:00:35;102833.47;;;2.27;100.00
19236;BME280;9752;54.270;12.470;2023-01-27T06:05:36;102835.88;;;2.26;100.00
19236;BME280;9752;54.270;12.470;2023-01-27T06:10:38;102831.81;;;2.21;100.00
19236;BME280;9752;54.270;12.470;2023-01-27T06:15:43;102827.38;;;2.20;100.00
19236;BME280;9752;54.270;12.470;2023-01-27T06:20:45;102840.72;;;2.17;100.00
19236;BME280;9752;54.270;12.470;2023-01-27T06:25:47;102844.75;;;2.15;100.00
19236;BME280;9752;54.270;12.470;2023-01-27T06:30:50;102842.19;;;2.15;100.00
19236;BME280;9752;54.270;12.470;2023-01-27T06:35:59;102848.94;;;2.14;100.00
19236;BME280;9752;54.270;12.470;2023-01-27T06:41:02;102860.94;;;2.08;100.00
19236;BME280;9752;54.270;12.470;2023-01-27T06:46:05;102868.75;;;2.03;100.00
19236;BME280;9752;54.270;12.470;2023-01-27T06:51:07;102872.25;;;2.03;100.00
19236;BME280;9752;54.270;12.470;2023-01-27T06:56:09;102868.47;;;2.07;100.00
19236;BME280;9752;54.270;12.470;2023-01-27T07:01:12;102874.84;;;2.10;100.00
19236;BME280;9752;54.270;12.470;2023-01-27T07:06:13;102880.50;;;2.08;100.00
19236;BME280;9752;54.270;12.470;2023-01-27T07:11:15;102891.16;;;2.11;100.00
19236;BME280;9752;54.270;12.470;2023-01-27T07:16:18;102890.97;;;2.09;100.00
19236;BME280;9752;54.270;12.470;2023-01-27T07:21:20;102899.53;;;2.10;100.00
19236;BME280;9752;54.270;12.470;2023-01-27T07:26:21;102907.97;;;2.09;100.00
19236;BME280;9752;54.270;12.470;2023-01-27T07:31:25;102905.19;;;2.07;100.00
19236;BME280;9752;54.270;12.470;2023-01-27T07:36:26;102897.19;;;2.11;100.00
19236;BME280;9752;54.270;12.470;2023-01-27T07:41:28;102901.00;;;2.08;100.00
19236;BME280;9752;54.270;12.470;2023-01-27T07:46:31;102897.53;;;2.07;100.00
19236;BME280;9752;54.270;12.470;2023-01-27T07:51:33;102902.72;;;2.14;100.00
19236;BME280;9752;54.270;12.470;2023-01-27T07:56:35;102903.09;;;2.18;100.00
19236;BME280;9752;54.270;12.470;2023-01-27T08:01:38;102902.25;;;2.24;100.00
19236;BME280;9752;54.270;12.470;2023-01-27T08:06:40;102909.59;;;2.28;100.00
19236;BME280;9752;54.270;12.470;2023-01-27T08:11:42;102906.63;;;2.25;100.00
19236;BME280;9752;54.270;12.470;2023-01-27T08:16:45;102913.44;;;2.32;100.00
19236;BME280;9752;54.270;12.470;2023-01-27T08:21:46;102906.47;;;2.31;100.00
19236;BME280;9752;54.270;12.470;2023-01-27T08:26:48;102903.44;;;2.41;100.00
19236;BME280;9752;54.270;12.470;2023-01-27T08:31:51;102915.94;;;2.45;100.00
19236;BME280;9752;54.270;12.470;2023-01-27T08:36:53;102917.03;;;2.47;100.00
19236;BME280;9752;54.270;12.470;2023-01-27T08:41:54;102923.47;;;2.50;100.00
19236;BME280;9752;54.270;12.470;2023-01-27T08:46:57;102922.75;;;2.51;100.00
19236;BME280;9752;54.270;12.470;2023-01-27T08:51:59;102919.84;;;2.56;100.00
19236;BME280;9752;54.270;12.470;2023-01-27T08:57:00;102933.25;;;2.60;100.00
19236;BME280;9752;54.270;12.470;2023-01-27T09:02:03;102927.16;;;2.52;100.00
19236;BME280;9752;54.270;12.470;2023-01-27T09:07:05;102925.56;;;2.67;100.00
19236;BME280;9752;54.270;12.470;2023-01-27T09:12:07;102933.81;;;2.65;100.00
19236;BME280;9752;54.270;12.470;2023-01-27T09:17:10;102937.53;;;2.74;100.00
19236;BME280;9752;54.270;12.470;2023-01-27T09:22:13;102943.72;;;2.69;100.00
19236;BME280;9752;54.270;12.470;2023-01-27T09:27:15;102949.59;;;2.75;100.00
19236;BME280;9752;54.270;12.470;2023-01-27T09:32:18;102946.63;;;2.65;100.00
19236;BME280;9752;54.270;12.470;2023-01-27T09:37:20;102949.66;;;2.82;100.00
19236;BME280;9752;54.270;12.470;2023-01-27T09:42:37;102949.81;;;2.77;100.00
19236;BME280;9752;54.270;12.470;2023-01-27T09:47:56;102951.00;;;2.93;100.00
19236;BME280;9752;54.270;12.470;2023-01-27T09:53:17;102947.69;;;2.87;100.00
19236;BME280;9752;54.270;12.470;2023-01-27T09:58:38;102956.53;;;3.03;100.00
19236;BME280;9752;54.270;12.470;2023-01-27T10:03:56;102954.38;;;3.06;100.00
19236;BME280;9752;54.270;12.470;2023-01-27T10:09:23;102953.97;;;3.03;100.00
19236;BME280;9752;54.270;12.470;2023-01-27T10:14:38;102967.13;;;3.26;100.00
19236;BME280;9752;54.270;12.470;2023-01-27T10:19:56;102942.72;;;3.16;100.00
19236;BME280;9752;54.270;12.470;2023-01-27T10:25:11;102952.38;;;3.11;100.00
19236;BME280;9752;54.270;12.470;2023-01-27T10:30:20;102941.28;;;3.25;100.00
19236;BME280;9752;54.270;12.470;2023-01-27T10:35:30;102951.25;;;3.50;100.00
19236;BME280;9752;54.270;12.470;2023-01-27T10:40:39;102944.16;;;3.62;100.00
19236;BME280;9752;54.270;12.470;2023-01-27T10:45:47;102948.59;;;3.85;100.00
19236;BME280;9752;54.270;12.470;2023-01-27T10:50:56;102941.50;;;3.97;100.00
19236;BME280;9752;54.270;12.470;2023-01-27T10:56:02;102941.50;;;3.97;100.00
19236;BME280;9752;54.270;12.470;2023-01-27T11:01:07;102946.66;;;4.18;100.00
19236;BME280;9752;54.270;12.470;2023-01-27T11:06:15;102939.28;;;4.00;100.00
19236;BME280;9752;54.270;12.470;2023-01-27T11:11:20;102935.06;;;4.07;100.00
19236;BME280;9752;54.270;12.470;2023-01-27T11:16:43;102931.59;;;4.28;100.00
19236;BME280;9752;54.270;12.470;2023-01-27T11:21:49;102924.97;;;4.30;100.00
19236;BME280;9752;54.270;12.470;2023-01-27T11:26:57;102929.22;;;4.01;100.00
19236;BME280;9752;54.270;12.470;2023-01-27T11:32:04;102936.00;;;4.08;100.00
19236;BME280;9752;54.270;12.470;2023-01-27T11:37:16;102934.13;;;3.92;100.00
19236;BME280;9752;54.270;12.470;2023-01-27T11:42:19;102935.78;;;3.85;100.00
19236;BME280;9752;54.270;12.470;2023-01-27T11:47:26;102926.66;;;4.08;100.00
19236;BME280;9752;54.270;12.470;2023-01-27T11:52:30;102931.94;;;3.88;100.00
19236;BME280;9752;54.270;12.470;2023-01-27T11:57:34;102931.94;;;3.74;100.00
19236;BME280;9752;54.270;12.470;2023-01-27T12:02:40;102923.53;;;4.11;100.00
19236;BME280;9752;54.270;12.470;2023-01-27T12:07:48;102920.75;;;3.88;100.00
19236;BME280;9752;54.270;12.470;2023-01-27T12:12:52;102924.78;;;4.00;100.00
19236;BME280;9752;54.270;12.470;2023-01-27T12:17:55;102920.94;;;4.11;100.00
19236;BME280;9752;54.270;12.470;2023-01-27T12:23:05;102918.38;;;4.11;100.00
19236;BME280;9752;54.270;12.470;2023-01-27T12:28:23;102916.50;;;3.81;100.00
19236;BME280;9752;54.270;12.470;2023-01-27T12:33:28;102918.50;;;3.69;100.00
19236;BME280;9752;54.270;12.470;2023-01-27T12:38:35;102920.53;;;3.65;100.00
19236;BME280;9752;54.270;12.470;2023-01-27T12:43:49;102916.72;;;3.90;100.00
19236;BME280;9752;54.270;12.470;2023-01-27T12:48:53;102918.56;;;3.91;100.00
19236;BME280;9752;54.270;12.470;2023-01-27T12:54:13;102910.69;;;3.97;100.00
19236;BME280;9752;54.270;12.470;2023-01-27T12:59:17;102917.28;;;3.87;100.00
19236;BME280;9752;54.270;12.470;2023-01-27T13:04:22;102909.75;;;3.82;100.00
19236;BME280;9752;54.270;12.470;2023-01-27T13:09:29;102911.94;;;3.64;100.00
19236;BME280;9752;54.270;12.470;2023-01-27T13:14:38;102907.28;;;3.55;100.00
19236;BME280;9752;54.270;12.470;2023-01-27T13:19:43;102906.53;;;3.41;100.00
19236;BME280;9752;54.270;12.470;2023-01-27T13:24:53;102902.97;;;3.82;100.00
19236;BME280;9752;54.270;12.470;2023-01-27T13:30:02;102906.09;;;3.80;100.00
19236;BME280;9752;54.270;12.470;2023-01-27T13:35:17;102902.03;;;3.96;100.00
19236;BME280;9752;54.270;12.470;2023-01-27T13:40:28;102902.78;;;3.81;100.00
19236;BME280;9752;54.270;12.470;2023-01-27T13:45:36;102900.38;;;3.75;100.00
19236;BME280;9752;54.270;12.470;2023-01-27T13:50:39;102899.28;;;3.73;100.00
19236;BME280;9752;54.270;12.470;2023-01-27T13:56:03;102904.78;;;3.69;100.00
19236;BME280;9752;54.270;12.470;2023-01-27T14:01:16;102905.63;;;3.48;100.00
19236;BME280;9752;54.270;12.470;2023-01-27T14:06:31;102915.75;;;3.54;100.00
19236;BME280;9752;54.270;12.470;2023-01-27T14:11:45;102910.22;;;3.50;100.00
19236;BME280;9752;54.270;12.470;2023-01-27T14:16:58;102925.97;;;3.46;100.00
19236;BME280;9752;54.270;12.470;2023-01-27T14:22:08;102922.09;;;3.43;100.00
19236;BME280;9752;54.270;12.470;2023-01-27T14:27:20;102921.16;;;3.35;100.00
19236;BME280;9752;54.270;12.470;2023-01-27T14:32:28;102924.56;;;3.14;100.00
19236;BME280;9752;54.270;12.470;2023-01-27T14:37:35;102917.72;;;3.00;100.00
19236;BME280;9752;54.270;12.470;2023-01-27T14:42:43;102923.38;;;2.98;100.00
19236;BME280;9752;54.270;12.470;2023-01-27T14:47:55;102918.09;;;2.96;100.00
19236;BME280;9752;54.270;12.470;2023-01-27T14:53:07;102930.84;;;2.89;100.00
19236;BME280;9752;54.270;12.470;2023-01-27T14:58:24;102924.66;;;2.94;100.00
19236;BME280;9752;54.270;12.470;2023-01-27T15:04:00;102933.38;;;2.82;100.00
19236;BME280;9752;54.270;12.470;2023-01-27T15:09:16;102930.94;;;2.76;100.00
19236;BME280;9752;54.270;12.470;2023-01-27T15:14:38;102935.13;;;2.68;100.00
19236;BME280;9752;54.270;12.470;2023-01-27T15:19:58;102943.09;;;2.57;100.00
19236;BME280;9752;54.270;12.470;2023-01-27T15:25:20;102948.75;;;2.54;100.00
19236;BME280;9752;54.270;12.470;2023-01-27T15:30:30;102944.81;;;2.44;100.00
19236;BME280;9752;54.270;12.470;2023-01-27T15:35:36;102960.38;;;2.25;100.00
19236;BME280;9752;54.270;12.470;2023-01-27T15:40:56;102966.31;;;2.11;100.00
19236;BME280;9752;54.270;12.470;2023-01-27T15:46:17;102963.59;;;1.97;100.00
19236;BME280;9752;54.270;12.470;2023-01-27T15:51:23;102971.72;;;1.87;100.00
19236;BME280;9752;54.270;12.470;2023-01-27T15:56:41;102973.94;;;1.91;100.00
19236;BME280;9752;54.270;12.470;2023-01-27T16:01:48;102981.47;;;1.90;100.00
19236;BME280;9752;54.270;12.470;2023-01-27T16:06:51;102989.72;;;1.94;100.00
19236;BME280;9752;54.270;12.470;2023-01-27T16:12:03;102983.16;;;1.97;100.00
19236;BME280;9752;54.270;12.470;2023-01-27T16:17:19;102982.03;;;1.94;100.00
19236;BME280;9752;54.270;12.470;2023-01-27T16:22:21;102987.88;;;1.93;100.00
19236;BME280;9752;54.270;12.470;2023-01-27T16:27:41;102978.16;;;1.91;100.00
19236;BME280;9752;54.270;12.470;2023-01-27T16:33:03;102989.31;;;1.91;100.00
19236;BME280;9752;54.270;12.470;2023-01-27T16:38:15;102997.31;;;1.87;100.00
19236;BME280;9752;54.270;12.470;2023-01-27T16:43:22;103005.56;;;1.72;100.00
19236;BME280;9752;54.270;12.470;2023-01-27T16:48:31;102999.09;;;1.68;100.00
19236;BME280;9752;54.270;12.470;2023-01-27T16:53:34;102989.78;;;1.69;100.00
19236;BME280;9752;54.270;12.470;2023-01-27T16:58:38;102994.63;;;1.73;100.00
19236;BME280;9752;54.270;12.470;2023-01-27T17:03:41;103008.09;;;1.72;100.00
19236;BME280;9752;54.270;12.470;2023-01-27T17:08:44;102997.56;;;1.76;100.00
19236;BME280;9752;54.270;12.470;2023-01-27T17:13:47;102998.72;;;1.65;100.00
19236;BME280;9752;54.270;12.470;2023-01-27T17:18:51;102990.00;;;1.70;100.00
19236;BME280;9752;54.270;12.470;2023-01-27T17:23:57;103001.47;;;1.67;100.00
19236;BME280;9752;54.270;12.470;2023-01-27T17:29:02;103005.69;;;1.53;100.00
19236;BME280;9752;54.270;12.470;2023-01-27T17:34:05;103007.66;;;1.36;100.00
19236;BME280;9752;54.270;12.470;2023-01-27T17:39:23;103011.66;;;1.21;100.00
19236;BME280;9752;54.270;12.470;2023-01-27T17:44:25;103008.59;;;1.11;100.00
19236;BME280;9752;54.270;12.470;2023-01-27T17:49:29;103009.00;;;1.01;100.00
19236;BME280;9752;54.270;12.470;2023-01-27T17:54:33;103014.19;;;0.83;100.00
19236;BME280;9752;54.270;12.470;2023-01-27T17:59:39;103022.69;;;0.76;100.00
19236;BME280;9752;54.270;12.470;2023-01-27T18:04:46;103029.41;;;0.75;100.00
19236;BME280;9752;54.270;12.470;2023-01-27T18:09:52;103039.75;;;0.83;100.00
19236;BME280;9752;54.270;12.470;2023-01-27T18:14:54;103034.13;;;0.85;100.00
19236;BME280;9752;54.270;12.470;2023-01-27T18:19:57;103027.28;;;0.78;100.00
19236;BME280;9752;54.270;12.470;2023-01-27T18:25:00;103028.47;;;0.62;100.00
19236;BME280;9752;54.270;12.470;2023-01-27T18:30:07;103030.19;;;0.56;100.00
19236;BME280;9752;54.270;12.470;2023-01-27T18:35:25;103033.44;;;0.55;100.00
19236;BME280;9752;54.270;12.470;2023-01-27T18:40:29;103036.63;;;0.60;100.00
19236;BME280;9752;54.270;12.470;2023-01-27T18:45:31;103037.50;;;0.78;100.00
19236;BME280;9752;54.270;12.470;2023-01-27T18:50:38;103036.41;;;0.89;100.00
19236;BME280;9752;54.270;12.470;2023-01-27T18:55:41;103046.91;;;0.98;100.00
19236;BME280;9752;54.270;12.470;2023-01-27T19:00:46;103038.63;;;1.06;100.00
19236;BME280;9752;54.270;12.470;2023-01-27T19:05:50;103036.50;;;1.09;100.00
19236;BME280;9752;54.270;12.470;2023-01-27T19:10:51;103036.81;;;1.05;100.00
19236;BME280;9752;54.270;12.470;2023-01-27T19:15:54;103032.59;;;1.06;100.00
19236;BME280;9752;54.270;12.470;2023-01-27T19:20:59;103038.03;;;1.02;100.00
19236;BME280;9752;54.270;12.470;2023-01-27T19:26:02;103047.56;;;1.03;100.00
19236;BME280;9752;54.270;12.470;2023-01-27T19:31:05;103044.47;;;1.05;100.00
19236;BME280;9752;54.270;12.470;2023-01-27T19:36:16;103051.03;;;1.03;100.00
19236;BME280;9752;54.270;12.470;2023-01-27T19:41:21;103038.75;;;1.13;100.00
19236;BME280;9752;54.270;12.470;2023-01-27T19:46:22;103039.69;;;1.14;100.00
19236;BME280;9752;54.270;12.470;2023-01-27T19:51:26;103034.38;;;1.12;100.00
19236;BME280;9752;54.270;12.470;2023-01-27T19:56:29;103027.28;;;1.04;100.00
19236;BME280;9752;54.270;12.470;2023-01-27T20:01:31;103020.66;;;0.86;100.00
19236;BME280;9752;54.270;12.470;2023-01-27T20:06:34;103017.72;;;0.52;100.00
19236;BME280;9752;54.270;12.470;2023-01-27T20:11:37;103014.31;;;0.14;100.00
19236;BME280;9752;54.270;12.470;2023-01-27T20:16:39;103016.25;;;-0.09;100.00
19236;BME280;9752;54.270;12.470;2023-01-27T20:21:42;103018.88;;;0.04;100.00
19236;BME280;9752;54.270;12.470;2023-01-27T20:26:44;103010.34;;;-0.02;100.00
19236;BME280;9752;54.270;12.470;2023-01-27T20:31:46;103009.25;;;-0.23;100.00
19236;BME280;9752;54.270;12.470;2023-01-27T20:36:50;103013.84;;;-0.20;100.00
19236;BME280;9752;54.270;12.470;2023-01-27T20:41:51;103017.09;;;-0.03;100.00
19236;BME280;9752;54.270;12.470;2023-01-27T20:46:53;103009.00;;;0.13;100.00
19236;BME280;9752;54.270;12.470;2023-01-27T20:51:56;103004.63;;;0.12;100.00
19236;BME280;9752;54.270;12.470;2023-01-27T20:56:58;103004.75;;;0.19;100.00
19236;BME280;9752;54.270;12.470;2023-01-27T21:02:00;103011.41;;;0.24;100.00
19236;BME280;9752;54.270;12.470;2023-01-27T21:07:03;103009.66;;;0.30;100.00
19236;BME280;9752;54.270;12.470;2023-01-27T21:12:05;103015.22;;;0.33;100.00
19236;BME280;9752;54.270;12.470;2023-01-27T21:17:06;103006.28;;;0.24;100.00
19236;BME280;9752;54.270;12.470;2023-01-27T21:22:09;103016.34;;;0.17;100.00
19236;BME280;9752;54.270;12.470;2023-01-27T21:27:11;103007.13;;;0.30;100.00
19236;BME280;9752;54.270;12.470;2023-01-27T21:32:13;103012.03;;;0.29;100.00
19236;BME280;9752;54.270;12.470;2023-01-27T21:37:16;103011.81;;;0.27;100.00
19236;BME280;9752;54.270;12.470;2023-01-27T21:42:17;103008.63;;;0.23;100.00
19236;BME280;9752;54.270;12.470;2023-01-27T21:47:37;103008.00;;;0.18;100.00
19236;BME280;9752;54.270;12.470;2023-01-27T21:52:42;103005.25;;;0.16;100.00
19236;BME280;9752;54.270;12.470;2023-01-27T21:57:44;103011.56;;;0.13;100.00
19236;BME280;9752;54.270;12.470;2023-01-27T22:02:52;103001.41;;;0.07;100.00
19236;BME280;9752;54.270;12.470;2023-01-27T22:07:55;102998.56;;;-0.02;100.00
19236;BME280;9752;54.270;12.470;2023-01-27T22:12:58;103003.06;;;-0.12;100.00
19236;BME280;9752;54.270;12.470;2023-01-27T22:18:01;103012.59;;;-0.11;100.00
19236;BME280;9752;54.270;12.470;2023-01-27T22:23:04;103009.59;;;-0.14;100.00
19236;BME280;9752;54.270;12.470;2023-01-27T22:28:05;103002.09;;;-0.07;100.00
19236;BME280;9752;54.270;12.470;2023-01-27T22:33:07;103015.97;;;-0.05;100.00
19236;BME280;9752;54.270;12.470;2023-01-27T22:38:10;103016.94;;;0.09;100.00
19236;BME280;9752;54.270;12.470;2023-01-27T22:43:12;103022.69;;;0.13;100.00
19236;BME280;9752;54.270;12.470;2023-01-27T22:48:14;103009.81;;;0.06;100.00
19236;BME280;9752;54.270;12.470;2023-01-27T22:53:17;103007.94;;;0.05;100.00
19236;BME280;9752;54.270;12.470;2023-01-27T22:58:18;103014.47;;;0.03;100.00
19236;BME280;9752;54.270;12.470;2023-01-27T23:03:20;103012.91;;;-0.02;100.00
19236;BME280;9752;54.270;12.470;2023-01-27T23:08:24;103016.34;;;0.17;100.00
19236;BME280;9752;54.270;12.470;2023-01-27T23:13:26;103026.84;;;0.31;100.00
19236;BME280;9752;54.270;12.470;2023-01-27T23:18:27;103015.50;;;0.29;100.00
19236;BME280;9752;54.270;12.470;2023-01-27T23:23:31;103008.84;;;0.24;100.00
19236;BME280;9752;54.270;12.470;2023-01-27T23:28:33;102996.38;;;0.20;100.00
19236;BME280;9752;54.270;12.470;2023-01-27T23:33:36;103000.34;;;0.18;100.00
19236;BME280;9752;54.270;12.470;2023-01-27T23:38:40;103002.00;;;0.30;100.00
19236;BME280;9752;54.270;12.470;2023-01-27T23:43:41;102986.59;;;0.23;100.00
19236;BME280;9752;54.270;12.470;2023-01-27T23:48:47;102992.56;;;0.11;100.00
19236;BME280;9752;54.270;12.470;2023-01-27T23:53:52;102993.56;;;0.06;100.00
19236;BME280;9752;54.270;12.470;2023-01-27T23:58:53;102997.59;;;0.16;100.00
